createdAt,value
2023-02-15T00:00:44.640Z,0.51
2023-02-15T00:03:18.182Z,0.49
2023-02-15T00:05:47.171Z,0.49
2023-02-15T00:08:15.851Z,0.44
2023-02-15T00:10:44.556Z,0.35
2023-02-15T00:13:13.430Z,0.31
2023-02-15T00:15:42.166Z,0.26
2023-02-15T00:18:10.913Z,0.29
2023-02-15T00:20:41.561Z,0.29
2023-02-15T00:23:10.369Z,0.28
2023-02-15T00:25:39.050Z,0.23
2023-02-15T00:28:07.941Z,0.23
2023-02-15T00:30:37.229Z,0.27
2023-02-15T00:33:06.067Z,0.29
2023-02-15T00:35:35.839Z,0.28
2023-02-15T00:38:06.449Z,0.26
2023-02-15T00:40:35.194Z,0.20
2023-02-15T00:43:03.890Z,0.13
2023-02-15T00:45:32.710Z,0.21
2023-02-15T00:48:01.916Z,0.22
2023-02-15T00:50:30.757Z,0.17
2023-02-15T00:52:59.529Z,0.07
2023-02-15T00:55:29.841Z,0.04
2023-02-15T00:57:59.000Z,-0.01
2023-02-15T01:00:27.780Z,0.00
2023-02-15T01:02:58.565Z,-0.11
2023-02-15T01:05:27.352Z,-0.16
2023-02-15T01:07:56.084Z,-0.11
2023-02-15T01:10:25.102Z,-0.13
2023-02-15T01:12:56.240Z,-0.15
2023-02-15T01:15:25.963Z,-0.18
2023-02-15T01:17:55.394Z,-0.23
2023-02-15T01:20:26.527Z,-0.30
2023-02-15T01:22:57.255Z,-0.42
2023-02-15T01:25:27.003Z,-0.49
2023-02-15T01:27:59.051Z,-0.55
2023-02-15T01:30:28.502Z,-0.52
2023-02-15T01:32:57.251Z,-0.52
2023-02-15T01:35:26.210Z,-0.50
2023-02-15T01:37:56.773Z,-0.57
2023-02-15T01:40:26.937Z,-0.64
2023-02-15T01:42:56.293Z,-0.67
2023-02-15T01:45:30.402Z,-0.64
2023-02-15T01:48:04.184Z,-0.67
2023-02-15T01:50:37.064Z,-0.68
2023-02-15T01:53:11.899Z,-0.70
2023-02-15T01:55:44.931Z,-0.72
2023-02-15T01:58:15.216Z,-0.80
2023-02-15T02:00:46.950Z,-0.81
2023-02-15T02:03:17.160Z,-0.80
2023-02-15T02:05:46.124Z,-0.85
2023-02-15T02:08:15.489Z,-0.91
2023-02-15T02:10:44.181Z,-0.90
2023-02-15T02:13:13.143Z,-0.89
2023-02-15T02:15:54.967Z,-1.01
2023-02-15T02:18:37.898Z,-0.97
2023-02-15T02:21:46.239Z,-0.96
2023-02-15T02:24:43.184Z,-0.96
2023-02-15T02:27:34.960Z,-0.94
2023-02-15T02:30:28.096Z,-0.99
2023-02-15T02:33:19.067Z,-1.06
2023-02-15T02:35:55.997Z,-1.12
2023-02-15T02:38:31.538Z,-1.17
2023-02-15T02:41:15.452Z,-1.20
2023-02-15T02:43:53.137Z,-1.13
2023-02-15T02:46:29.001Z,-1.19
2023-02-15T02:48:59.622Z,-1.26
2023-02-15T02:51:28.592Z,-1.21
2023-02-15T02:53:59.572Z,-1.17
2023-02-15T02:56:33.060Z,-1.23
2023-02-15T02:59:07.549Z,-1.32
2023-02-15T03:01:45.549Z,-1.33
2023-02-15T03:04:19.850Z,-1.32
2023-02-15T03:06:53.729Z,-1.34
2023-02-15T03:09:36.343Z,-1.39
2023-02-15T03:12:06.618Z,-1.39
2023-02-15T03:14:41.605Z,-1.44
2023-02-15T03:17:12.595Z,-1.52
2023-02-15T03:19:43.763Z,-1.51
2023-02-15T03:22:17.425Z,-1.38
2023-02-15T03:24:52.356Z,-1.32
2023-02-15T03:27:26.318Z,-1.29
2023-02-15T03:29:58.449Z,-1.27
2023-02-15T03:32:30.670Z,-1.29
2023-02-15T03:35:01.567Z,-1.36
2023-02-15T03:37:37.837Z,-1.28
2023-02-15T03:40:26.604Z,-1.46
2023-02-15T03:43:02.337Z,-1.45
2023-02-15T03:45:35.780Z,-1.45
2023-02-15T03:48:07.466Z,-1.46
2023-02-15T03:50:50.656Z,-1.55
2023-02-15T03:53:23.693Z,-1.52
2023-02-15T03:55:55.729Z,-1.60
2023-02-15T03:58:34.227Z,-1.54
2023-02-15T04:01:21.658Z,-1.48
2023-02-15T04:03:57.565Z,-1.45
2023-02-15T04:06:27.844Z,-1.43
2023-02-15T04:09:06.493Z,-1.49
2023-02-15T04:11:35.273Z,-1.56
2023-02-15T04:14:24.135Z,-1.57
2023-02-15T04:16:51.979Z,-1.60
2023-02-15T04:19:29.597Z,-1.58
2023-02-15T04:22:09.730Z,-1.62
2023-02-15T04:24:48.328Z,-1.59
2023-02-15T04:27:17.872Z,-1.77
2023-02-15T04:29:46.681Z,-1.59
2023-02-15T04:32:15.533Z,-1.62
2023-02-15T04:34:44.248Z,-1.67
2023-02-15T04:37:14.491Z,-1.74
2023-02-15T04:39:43.289Z,-1.83
2023-02-15T04:42:11.992Z,-1.89
2023-02-15T04:44:41.097Z,-1.83
2023-02-15T04:47:09.793Z,-1.85
2023-02-15T04:49:38.739Z,-1.81
2023-02-15T04:52:07.529Z,-1.90
2023-02-15T04:54:39.254Z,-1.90
2023-02-15T04:57:08.345Z,-1.90
2023-02-15T04:59:37.081Z,-1.90
2023-02-15T05:02:06.150Z,-1.92
2023-02-15T05:04:34.906Z,-2.01
2023-02-15T05:07:03.676Z,-2.03
2023-02-15T05:09:32.548Z,-1.96
2023-02-15T05:12:03.031Z,-2.00
2023-02-15T05:14:31.813Z,-1.99
2023-02-15T05:17:02.679Z,-2.00
2023-02-15T05:19:31.553Z,-2.05
2023-02-15T05:22:00.445Z,-2.05
2023-02-15T05:24:39.571Z,-2.04
2023-02-15T05:27:22.351Z,-2.06
2023-02-15T05:29:51.477Z,-2.14
2023-02-15T05:32:20.404Z,-2.14
2023-02-15T05:34:49.301Z,-2.15
2023-02-15T05:37:18.014Z,-2.14
2023-02-15T05:39:47.478Z,-2.13
2023-02-15T05:42:17.666Z,-2.13
2023-02-15T05:44:47.003Z,-2.13
2023-02-15T05:47:15.751Z,-2.13
2023-02-15T05:49:44.465Z,-2.14
2023-02-15T05:52:13.388Z,-2.18
2023-02-15T05:54:42.254Z,-2.20
2023-02-15T05:57:10.995Z,-2.19
2023-02-15T05:59:41.212Z,-2.20
2023-02-15T06:02:10.122Z,-2.13
2023-02-15T06:04:39.007Z,-2.18
2023-02-15T06:07:07.956Z,-2.16
2023-02-15T06:09:36.666Z,-2.14
2023-02-15T06:12:05.687Z,-2.18
2023-02-15T06:14:34.361Z,-2.17
2023-02-15T06:17:04.459Z,-2.10
2023-02-15T06:19:33.326Z,-2.06
2023-02-15T06:22:02.110Z,-1.71
2023-02-15T06:24:30.970Z,-1.20
2023-02-15T06:26:59.740Z,-0.77
2023-02-15T06:29:28.534Z,-0.46
2023-02-15T06:31:57.282Z,-0.36
2023-02-15T06:34:27.687Z,-0.25
2023-02-15T06:36:56.347Z,-0.11
2023-02-15T06:39:25.128Z,-0.04
2023-02-15T06:41:53.945Z,-0.19
2023-02-15T06:44:22.751Z,-0.15
2023-02-15T06:46:52.118Z,-0.10
2023-02-15T06:49:20.745Z,-0.07
2023-02-15T06:51:50.987Z,-0.09
2023-02-15T06:54:19.783Z,0.00
2023-02-15T06:56:48.757Z,0.07
2023-02-15T06:59:17.706Z,0.13
2023-02-15T07:01:46.466Z,0.23
2023-02-15T07:04:15.255Z,0.38
2023-02-15T07:06:44.430Z,0.49
2023-02-15T07:09:15.050Z,0.60
2023-02-15T07:11:54.639Z,0.71
2023-02-15T07:14:23.225Z,0.79
2023-02-15T07:16:51.948Z,0.91
2023-02-15T07:19:20.734Z,1.01
2023-02-15T07:21:49.448Z,1.08
2023-02-15T07:24:19.506Z,1.17
2023-02-15T07:26:48.355Z,1.10
2023-02-15T07:29:17.469Z,1.28
2023-02-15T07:31:46.597Z,1.49
2023-02-15T07:34:16.586Z,1.60
2023-02-15T07:36:46.968Z,1.75
2023-02-15T07:39:15.857Z,1.94
2023-02-15T07:41:46.008Z,2.04
2023-02-15T07:44:15.620Z,2.19
2023-02-15T07:46:44.400Z,2.39
2023-02-15T07:49:13.253Z,2.52
2023-02-15T07:51:44.349Z,2.62
2023-02-15T07:54:13.167Z,2.78
2023-02-15T07:56:42.147Z,2.86
2023-02-15T07:59:13.040Z,2.94
2023-02-15T08:01:42.278Z,2.91
2023-02-15T08:04:12.270Z,2.80
2023-02-15T08:06:41.266Z,2.71
2023-02-15T08:09:11.952Z,2.76
2023-02-15T08:11:42.041Z,2.70
2023-02-15T08:14:14.088Z,2.73
2023-02-15T08:16:44.786Z,2.79
2023-02-15T08:19:16.066Z,2.98
2023-02-15T08:21:47.546Z,3.13
2023-02-15T08:24:17.977Z,3.25
2023-02-15T08:26:47.938Z,3.45
2023-02-15T08:29:20.576Z,3.42
2023-02-15T08:31:49.897Z,3.58
2023-02-15T08:34:20.873Z,3.60
2023-02-15T08:36:49.856Z,3.63
2023-02-15T08:39:18.836Z,3.69
2023-02-15T08:41:49.838Z,3.88
2023-02-15T08:44:21.926Z,4.08
2023-02-15T08:46:51.406Z,4.22
2023-02-15T08:49:22.081Z,4.32
2023-02-15T08:51:52.115Z,4.27
2023-02-15T08:54:23.713Z,4.43
2023-02-15T08:56:52.445Z,4.51
2023-02-15T08:59:25.546Z,4.56
2023-02-15T09:01:55.569Z,4.71
2023-02-15T09:04:24.469Z,4.91
2023-02-15T09:06:53.332Z,4.87
2023-02-15T09:09:22.632Z,5.04
2023-02-15T09:11:58.836Z,5.21
2023-02-15T09:14:29.903Z,5.17
2023-02-15T09:16:58.784Z,5.03
2023-02-15T09:19:27.727Z,5.03
2023-02-15T09:21:56.559Z,5.03
2023-02-15T09:24:25.338Z,5.17
2023-02-15T09:26:54.072Z,5.14
2023-02-15T09:29:23.983Z,5.33
2023-02-15T09:31:54.795Z,5.41
2023-02-15T09:34:25.119Z,5.41
2023-02-15T09:36:54.629Z,5.50
2023-02-15T09:39:25.848Z,5.58
2023-02-15T09:42:27.546Z,5.56
2023-02-15T09:45:12.823Z,5.57
2023-02-15T09:48:12.094Z,5.77
2023-02-15T09:50:56.068Z,5.92
2023-02-15T09:53:49.623Z,5.98
2023-02-15T09:56:31.840Z,5.93
2023-02-15T09:59:12.798Z,5.99
2023-02-15T10:01:52.931Z,6.16
2023-02-15T10:04:41.769Z,6.25
2023-02-15T10:07:22.584Z,6.41
2023-02-15T10:10:07.618Z,6.41
2023-02-15T10:12:52.457Z,6.53
2023-02-15T10:15:45.026Z,6.60
2023-02-15T10:18:27.436Z,6.80
2023-02-15T10:21:09.814Z,6.97
2023-02-15T10:24:07.288Z,7.15
2023-02-15T10:26:42.358Z,7.33
2023-02-15T10:29:19.183Z,7.31
2023-02-15T10:31:51.984Z,7.61
2023-02-15T10:34:23.054Z,7.84
2023-02-15T10:37:27.235Z,7.81
2023-02-15T10:40:05.967Z,7.85
2023-02-15T10:42:47.648Z,7.94
2023-02-15T10:45:30.525Z,8.06
2023-02-15T10:48:25.883Z,8.11
2023-02-15T10:50:56.436Z,8.08
2023-02-15T10:53:51.089Z,7.92
2023-02-15T10:56:28.569Z,7.94
2023-02-15T10:59:22.730Z,8.15
2023-02-15T11:01:58.945Z,8.19
2023-02-15T11:04:43.574Z,8.28
2023-02-15T11:07:20.605Z,8.28
2023-02-15T11:09:54.551Z,8.35
2023-02-15T11:12:29.311Z,8.28
2023-02-15T11:15:05.357Z,8.12
2023-02-15T11:17:40.225Z,8.13
2023-02-15T11:20:19.338Z,8.16
2023-02-15T11:22:54.757Z,8.14
2023-02-15T11:25:27.668Z,8.37
2023-02-15T11:27:58.778Z,8.31
2023-02-15T11:30:36.453Z,8.24
2023-02-15T11:33:08.740Z,8.38
2023-02-15T11:35:44.197Z,8.47
2023-02-15T11:38:17.480Z,8.39
2023-02-15T11:40:50.500Z,8.32
2023-02-15T11:43:28.951Z,8.46
2023-02-15T11:45:57.916Z,8.69
2023-02-15T11:48:26.812Z,8.66
2023-02-15T11:50:55.753Z,8.50
2023-02-15T11:53:26.553Z,8.71
2023-02-15T11:55:55.885Z,8.89
2023-02-15T11:58:33.081Z,9.01
2023-02-15T12:01:11.753Z,8.97
2023-02-15T12:03:48.564Z,8.75
2023-02-15T12:06:27.413Z,8.99
2023-02-15T12:09:08.723Z,9.13
2023-02-15T12:11:40.077Z,9.12
2023-02-15T12:14:12.878Z,9.06
2023-02-15T12:16:47.582Z,8.94
2023-02-15T12:19:31.550Z,8.81
2023-02-15T12:22:02.260Z,8.95
2023-02-15T12:24:34.903Z,9.06
2023-02-15T12:27:06.518Z,9.09
2023-02-15T12:29:44.235Z,9.25
2023-02-15T12:32:20.826Z,9.19
2023-02-15T12:34:51.312Z,9.25
2023-02-15T12:37:23.849Z,9.14
2023-02-15T12:39:58.256Z,9.22
2023-02-15T12:42:30.569Z,9.10
2023-02-15T12:45:02.949Z,9.54
2023-02-15T12:47:33.630Z,9.52
2023-02-15T12:50:12.672Z,9.20
2023-02-15T12:52:41.569Z,8.92
2023-02-15T12:55:21.779Z,8.94
2023-02-15T12:57:51.745Z,8.82
2023-02-15T13:00:33.159Z,8.83
2023-02-15T13:03:04.353Z,8.89
2023-02-15T13:05:39.614Z,8.93
2023-02-15T13:08:16.701Z,8.92
2023-02-15T13:10:56.822Z,8.74
2023-02-15T13:13:30.074Z,8.69
2023-02-15T13:16:04.508Z,8.67
2023-02-15T13:18:36.839Z,8.80
2023-02-15T13:21:14.022Z,8.95
2023-02-15T13:23:49.650Z,8.97
2023-02-15T13:26:22.034Z,8.92
2023-02-15T13:28:55.289Z,8.68
2023-02-15T13:31:29.061Z,8.42
2023-02-15T13:34:05.062Z,8.37
2023-02-15T13:36:42.572Z,8.32
2023-02-15T13:39:22.228Z,8.33
2023-02-15T13:41:55.250Z,8.30
2023-02-15T13:44:37.175Z,8.36
2023-02-15T13:47:20.164Z,8.36
2023-02-15T13:50:03.065Z,8.35
2023-02-15T13:52:39.140Z,8.40
2023-02-15T13:55:28.356Z,8.08
2023-02-15T13:58:16.160Z,7.84
2023-02-15T14:00:58.274Z,7.76
2023-02-15T14:03:59.705Z,7.69
2023-02-15T14:06:47.090Z,7.65
2023-02-15T14:09:27.796Z,7.65
2023-02-15T14:12:13.749Z,7.63
2023-02-15T14:14:56.178Z,7.47
2023-02-15T14:17:32.370Z,7.30
2023-02-15T14:20:12.024Z,7.25
2023-02-15T14:22:45.655Z,7.10
2023-02-15T14:25:29.913Z,6.91
2023-02-15T14:28:06.594Z,6.75
2023-02-15T14:30:39.082Z,6.69
2023-02-15T14:33:10.972Z,6.73
2023-02-15T14:35:43.321Z,6.79
2023-02-15T14:38:22.963Z,6.68
2023-02-15T14:41:05.365Z,6.58
2023-02-15T14:43:46.025Z,6.47
2023-02-15T14:46:24.730Z,6.36
2023-02-15T14:48:56.132Z,6.25
2023-02-15T14:51:47.104Z,6.09
2023-02-15T14:54:41.642Z,5.97
2023-02-15T14:57:27.139Z,5.91
2023-02-15T14:59:59.503Z,5.86
2023-02-15T15:02:32.232Z,5.81
2023-02-15T15:05:10.722Z,5.74
2023-02-15T15:07:46.123Z,5.72
2023-02-15T15:10:36.976Z,5.65
2023-02-15T15:13:30.313Z,5.55
2023-02-15T15:16:41.046Z,5.49
2023-02-15T15:19:13.916Z,5.46
2023-02-15T15:21:55.831Z,5.36
2023-02-15T15:24:46.664Z,5.31
2023-02-15T15:27:37.118Z,5.29
2023-02-15T15:30:43.746Z,5.25
2023-02-15T15:33:32.093Z,5.26
2023-02-15T15:36:24.298Z,5.20
2023-02-15T15:39:07.766Z,5.10
2023-02-15T15:41:43.968Z,5.01
2023-02-15T15:44:38.652Z,4.89
2023-02-15T15:47:23.885Z,4.74
2023-02-15T15:49:58.616Z,4.70
2023-02-15T15:52:29.317Z,4.65
2023-02-15T15:55:04.871Z,4.52
2023-02-15T15:57:40.768Z,4.39
2023-02-15T16:00:34.636Z,4.25
2023-02-15T16:03:03.541Z,4.08
2023-02-15T16:05:40.367Z,3.93
2023-02-15T16:08:09.401Z,3.72
2023-02-15T16:10:39.043Z,3.61
2023-02-15T16:13:09.060Z,3.54
2023-02-15T16:15:50.676Z,3.37
2023-02-15T16:18:21.180Z,3.22
2023-02-15T16:20:56.774Z,3.09
2023-02-15T16:24:06.864Z,3.02
2023-02-15T16:26:56.971Z,2.85
2023-02-15T16:29:31.931Z,2.73
2023-02-15T16:32:03.300Z,2.65
2023-02-15T16:34:34.235Z,2.55
2023-02-15T16:37:19.012Z,2.50
2023-02-15T16:39:50.168Z,2.35
2023-02-15T16:42:20.228Z,2.29
2023-02-15T16:44:53.567Z,2.24
2023-02-15T16:47:27.040Z,2.18
2023-02-15T16:49:58.826Z,2.13
2023-02-15T16:52:30.806Z,2.08
2023-02-15T16:55:02.573Z,2.04
2023-02-15T16:57:36.041Z,2.02
2023-02-15T17:00:08.416Z,2.02
2023-02-15T17:02:55.132Z,1.99
2023-02-15T17:05:25.336Z,1.95
2023-02-15T17:08:17.786Z,1.95
2023-02-15T17:11:04.316Z,1.92
2023-02-15T17:13:33.913Z,1.86
2023-02-15T17:16:32.926Z,1.81
2023-02-15T17:19:03.545Z,1.79
2023-02-15T17:21:36.570Z,1.80
2023-02-15T17:24:07.151Z,1.93
2023-02-15T17:26:39.167Z,1.97
2023-02-15T17:29:20.331Z,1.89
2023-02-15T17:31:51.457Z,1.89
2023-02-15T17:34:45.998Z,1.84
2023-02-15T17:37:15.654Z,1.86
2023-02-15T17:39:46.000Z,1.73
2023-02-15T17:42:14.800Z,1.65
2023-02-15T17:44:43.468Z,1.66
2023-02-15T17:47:16.388Z,1.61
2023-02-15T17:49:45.408Z,1.60
2023-02-15T17:52:15.811Z,1.59
2023-02-15T17:54:56.581Z,1.60
2023-02-15T17:57:26.595Z,1.49
2023-02-15T18:00:05.239Z,1.45
2023-02-15T18:02:51.332Z,1.31
2023-02-15T18:05:30.169Z,1.31
2023-02-15T18:08:09.006Z,1.32
2023-02-15T18:10:48.206Z,1.27
2023-02-15T18:13:16.918Z,1.27
2023-02-15T18:15:45.825Z,1.24
2023-02-15T18:18:17.247Z,1.20
2023-02-15T18:20:46.105Z,1.18
2023-02-15T18:23:16.099Z,1.12
2023-02-15T18:25:46.637Z,1.06
2023-02-15T18:28:15.592Z,1.00
2023-02-15T18:30:45.390Z,0.92
2023-02-15T18:33:27.474Z,0.95
2023-02-15T18:35:56.302Z,0.94
2023-02-15T18:38:24.989Z,0.86
2023-02-15T18:40:55.279Z,0.86
2023-02-15T18:43:24.003Z,0.81
2023-02-15T18:45:52.888Z,0.74
2023-02-15T18:48:21.850Z,0.64
2023-02-15T18:50:52.246Z,0.66
2023-02-15T18:53:23.628Z,0.68
2023-02-15T18:55:52.506Z,0.64
2023-02-15T18:58:26.287Z,0.63
2023-02-15T19:00:55.719Z,0.66
2023-02-15T19:03:24.399Z,0.59
2023-02-15T19:05:53.179Z,0.55
2023-02-15T19:08:24.813Z,0.52
2023-02-15T19:10:54.441Z,0.51
2023-02-15T19:13:25.049Z,0.49
2023-02-15T19:15:54.205Z,0.34
2023-02-15T19:18:22.908Z,0.39
2023-02-15T19:20:51.852Z,0.40
2023-02-15T19:23:23.893Z,0.42
2023-02-15T19:25:54.998Z,0.42
2023-02-15T19:28:33.043Z,0.40
2023-02-15T19:31:01.938Z,0.33
2023-02-15T19:33:30.713Z,0.41
2023-02-15T19:35:59.628Z,0.34
2023-02-15T19:38:32.578Z,0.21
2023-02-15T19:41:06.147Z,0.21
2023-02-15T19:43:37.198Z,0.06
2023-02-15T19:46:06.613Z,0.04
2023-02-15T19:48:35.535Z,0.04
2023-02-15T19:51:05.450Z,0.01
2023-02-15T19:53:34.282Z,-0.05
2023-02-15T19:56:03.392Z,-0.02
2023-02-15T19:58:33.881Z,-0.01
2023-02-15T20:01:04.573Z,-0.03
2023-02-15T20:03:33.545Z,-0.12
2023-02-15T20:06:02.623Z,-0.10
2023-02-15T20:08:33.122Z,-0.01
2023-02-15T20:11:03.071Z,0.06
2023-02-15T20:13:31.991Z,-0.06
2023-02-15T20:16:05.404Z,-0.09
2023-02-15T20:18:35.740Z,-0.04
2023-02-15T20:21:05.442Z,-0.02
2023-02-15T20:23:37.315Z,0.05
2023-02-15T20:26:15.843Z,0.09
2023-02-15T20:28:45.385Z,0.16
2023-02-15T20:31:16.969Z,0.12
2023-02-15T20:33:47.676Z,0.04
2023-02-15T20:36:18.287Z,0.06
2023-02-15T20:38:47.924Z,-0.05
2023-02-15T20:41:29.320Z,-0.06
2023-02-15T20:43:58.746Z,-0.13
2023-02-15T20:46:27.762Z,-0.08
2023-02-15T20:48:58.053Z,0.02
2023-02-15T20:51:27.116Z,-0.05
2023-02-15T20:53:55.841Z,-0.02
2023-02-15T20:56:26.343Z,-0.01
2023-02-15T20:58:55.412Z,0.05
2023-02-15T21:01:24.209Z,0.10
2023-02-15T21:03:53.105Z,0.11
2023-02-15T21:06:23.731Z,0.11
2023-02-15T21:08:52.616Z,0.08
2023-02-15T21:11:23.830Z,0.05
2023-02-15T21:13:52.793Z,0.02
2023-02-15T21:16:21.494Z,-0.04
2023-02-15T21:18:50.278Z,-0.07
2023-02-15T21:21:24.869Z,-0.11
2023-02-15T21:23:54.471Z,-0.10
2023-02-15T21:26:24.230Z,-0.11
2023-02-15T21:28:53.397Z,-0.16
2023-02-15T21:31:25.353Z,-0.20
2023-02-15T21:33:55.354Z,-0.21
2023-02-15T21:36:27.019Z,-0.23
2023-02-15T21:38:56.953Z,-0.22
2023-02-15T21:41:36.082Z,-0.16
2023-02-15T21:44:26.644Z,-0.18
2023-02-15T21:47:05.433Z,-0.21
2023-02-15T21:49:34.224Z,-0.21
2023-02-15T21:52:13.135Z,-0.25
2023-02-15T21:54:42.454Z,-0.36
2023-02-15T21:57:15.876Z,-0.47
2023-02-15T21:59:47.073Z,-0.46
2023-02-15T22:02:28.752Z,-0.48
2023-02-15T22:04:58.236Z,-0.48
2023-02-15T22:07:28.461Z,-0.41
2023-02-15T22:09:57.224Z,-0.48
2023-02-15T22:12:26.039Z,-0.53
2023-02-15T22:14:55.373Z,-0.51
2023-02-15T22:17:25.987Z,-0.42
2023-02-15T22:19:54.914Z,-0.40
2023-02-15T22:22:23.957Z,-0.43
2023-02-15T22:24:54.225Z,-0.49
2023-02-15T22:27:26.310Z,-0.51
2023-02-15T22:29:56.804Z,-0.56
2023-02-15T22:32:27.489Z,-0.52
2023-02-15T22:34:56.492Z,-0.54
2023-02-15T22:37:25.232Z,-0.53
2023-02-15T22:39:55.669Z,-0.51
2023-02-15T22:42:27.646Z,-0.46
2023-02-15T22:44:58.822Z,-0.44
2023-02-15T22:47:32.687Z,-0.41
2023-02-15T22:50:02.227Z,-0.37
2023-02-15T22:52:34.310Z,-0.37
2023-02-15T22:55:04.724Z,-0.41
2023-02-15T22:57:34.620Z,-0.38
2023-02-15T23:00:04.068Z,-0.33
2023-02-15T23:02:33.211Z,-0.33
2023-02-15T23:05:02.290Z,-0.40
2023-02-15T23:07:31.395Z,-0.39
2023-02-15T23:10:00.336Z,-0.45
2023-02-15T23:12:54.537Z,-0.57
2023-02-15T23:15:23.497Z,-0.57
2023-02-15T23:17:52.359Z,-0.62
2023-02-15T23:20:22.128Z,-0.59
2023-02-15T23:22:51.264Z,-0.48
2023-02-15T23:25:24.817Z,-0.46
2023-02-15T23:27:58.367Z,-0.45
2023-02-15T23:30:28.667Z,-0.46
2023-02-15T23:32:58.831Z,-0.39
2023-02-15T23:35:28.071Z,-0.40
2023-02-15T23:37:57.385Z,-0.42
2023-02-15T23:40:36.237Z,-0.42
2023-02-15T23:43:08.543Z,-0.44
2023-02-15T23:45:41.081Z,-0.51
2023-02-15T23:48:31.060Z,-0.47
2023-02-15T23:51:00.983Z,-0.39
2023-02-15T23:53:30.394Z,-0.40
2023-02-15T23:55:59.815Z,-0.28
2023-02-15T23:58:38.376Z,-0.30
